YBBNYBMK

Guest
Details From YBBN - Brisbane Intl
To YBMK - Mackay
Flight Number -
Tags Generated
Created
Modified
Stats Distance 432 nm / 799 km
Max Altitude 0 ft / 0 m
Waypoints 5
Social Downloads 0
Likes 0
Share VATSIM

Download

Looking for another format? Having issues loading an existing format? Contact us
Advertisement - Login to hide

Notes

Generated

Route

YBBN GAYED BRKNC BMKSI YBMK

ID Type Via Altitude Latitude Longitude Leg Dist Tot Dist Heading (true) Name
O YBBN APT - 0 ft / 0 m -27.40786˚ 153.10379˚ - 0 nm - -
GAYED FIX - 0 ft / 0 m -25.45011˚ 151.80922˚ 136 nm 136 nm 329° / 330° -
BRKNC FIX - 0 ft / 0 m -23.12885˚ 150.36381˚ 160 nm 296 nm 330° / 331° -
BMKSI FIX - 0 ft / 0 m -21.32379˚ 149.28514˚ 123 nm 420 nm 331° / 331° -
O YBMK APT - 0 ft / 0 m -21.17569˚ 149.17421˚ 10 nm 431 nm 325° / 325° -

Altitude Profile

Advertisement - Login to hide

Weather


0- 5 10 15 20 25 30 35+ Temperature / ° C

Clouds and Precipitation
Forecast for 2018-05-24 18:00 UTC. Updated 3 hours ago

Ground ~20,000 ft ~40,000 ft Winds

YBBN

Details ICAO YBBN (BNE)
Name Brisbane Intl
Region Australia
Timezone Australia/Brisbane (UTC+10.0)
Stats Elevation 12 ft / 4 m (AMSL)
Location -27.375714° 153.127710°
Runways 2
Magnetic Variation 10.987° E

METAR

YBBN 241930Z 22009KT 9999 FEW045 OVC220 14/12 Q1022 NOSIG

Decode

TAF

TAF YBBN 241723Z 2418/2524 19006KT 9999 SCT030 FM250200 15012KT 9999 -SHRA SCT030 FM251000 19008KT 9999 -SHRA BKN025 FM252200 16012KT 9999 -SHRA SCT030 INTER 2506/2521 3000 SHRA BKN010

Decode

Departure Runways

ID Width Length Bearing (true) Bearing (mag) Surface Threshold Offset Overrun Length
01 148 ft / 45 m 11,805 ft / 3,598 m 26.93° 15.94° Asphalt 197 ft / 60 m 0 ft / 0 m
14 98 ft / 30 m 5,787 ft / 1,764 m 145.66° 134.67° Asphalt 197 ft / 60 m 0 ft / 0 m
19 148 ft / 45 m 11,805 ft / 3,598 m 206.92° 195.93° Asphalt 0 ft / 0 m 0 ft / 0 m
32 98 ft / 30 m 5,787 ft / 1,764 m 325.66° 314.67° Asphalt 197 ft / 60 m 0 ft / 0 m

YBMK

Details ICAO YBMK (MKY)
Name Mackay
Region Australia
Timezone Australia/Brisbane (UTC+10.0)
Stats Elevation 18 ft / 5 m (AMSL)
Location -21.171614° 149.181130°
Runways 2
Magnetic Variation 8.375° E

METAR

YBMK 241900Z AUTO 16007KT 6000 // SCT020 BKN028 BKN041 19/18 Q1017

Decode

TAF

Not found

Destination Runways

ID Width Length Bearing (true) Bearing (mag) Surface Threshold Offset Overrun Length
05 98 ft / 30 m 4,411 ft / 1,344 m 57.80° 49.42° Asphalt 194 ft / 59 m 0 ft / 0 m
14 148 ft / 45 m 6,516 ft / 1,986 m 147.90° 139.52° Asphalt 0 ft / 0 m 0 ft / 0 m
23 98 ft / 30 m 4,411 ft / 1,344 m 237.80° 229.42° Asphalt 0 ft / 0 m 0 ft / 0 m
32 148 ft / 45 m 6,516 ft / 1,986 m 327.90° 319.52° Asphalt 0 ft / 0 m 0 ft / 0 m

Popular Alternatives